Kyokusho Maru — JL6605 — position and weather

sailwx.info

Track history (hours):
 
Tides and Currents Weather Stations Pressure Air Temp Water Temp Dewpoint Dewpoint Depression Visibility Wind Speed Wind Dir Waves Ship Positions

Kyokusho Maru

Last reported at 2015-Aug-23 06:05 UTC. Time now 2015-Sep-04 10:26 UTC.
Position N 34°08' E 134°58'.
Warning: this ship's position is 12 days out of date.

Length 77 m; draft 5.5 m.

Type: Tanker. MMSI: 431501667.

Date/timePositionNaut miles runAvg speedWind from/ knotsBaromVisibWave heightAir tempDewpointWater temp
2015-Aug-23 06:05N 34°08' E 134°58'611.5
2015-Aug-23 05:33N 34°08' E 135°06'2 0.3
2015-Aug-23 00:33N 34°07' E 135°07'1 1.2
2015-Aug-22 23:32N 34°08' E 135°07'2 1.4
2015-Aug-22 22:24N 34°09' E 135°08'0 0.0
2015-Aug-22 21:18N 34°09' E 135°08'0 0.0
2015-Aug-22 20:33N 34°09' E 135°08'0 0.0
2015-Aug-22 19:33N 34°09' E 135°08'0 0.1
2015-Aug-22 18:33N 34°09' E 135°08'0 0.1
2015-Aug-22 17:30N 34°09' E 135°08'0 0.0
2015-Aug-22 16:30N 34°09' E 135°08'0 0.0
2015-Aug-22 15:24N 34°09' E 135°08'0 0.0
2015-Aug-22 14:33N 34°09' E 135°08'0 0.0
2015-Aug-22 13:33N 34°09' E 135°08'0 0.0
2015-Aug-22 12:30N 34°09' E 135°08'0 0.0
2015-Aug-22 11:30N 34°09' E 135°08'0 0.0
2015-Aug-22 10:33N 34°09' E 135°08'0 0.0
2015-Aug-22 09:27N 34°09' E 135°08'0 0.0
2015-Aug-22 08:33N 34°09' E 135°08'0 0.0
2015-Aug-22 07:33N 34°09' E 135°08'0 0.0
2015-Aug-22 06:33N 34°09' E 135°08'0 0.0
2015-Aug-22 05:30N 34°09' E 135°08'0 0.0
2015-Aug-22 04:33N 34°10' E 135°08'0 0.1
2015-Aug-22 03:33N 34°10' E 135°08'0 0.0
2015-Aug-22 02:33N 34°10' E 135°08'0 0.0
2015-Aug-22 01:33N 34°10' E 135°08'0 0.0
2015-Aug-22 00:33N 34°10' E 135°08'0 0.0
2015-Aug-21 23:33N 34°10' E 135°08'0 0.0
2015-Aug-21 22:30N 34°10' E 135°08'0 0.1
2015-Aug-21 21:33N 34°10' E 135°08'0 0.0
2015-Aug-21 20:33N 34°10' E 135°08'0 0.0
2015-Aug-21 19:33N 34°10' E 135°08'0 0.0
2015-Aug-21 18:30N 34°10' E 135°08'0 0.0
2015-Aug-21 17:24N 34°10' E 135°08'0 0.0
2015-Aug-21 16:30N 34°10' E 135°08'0 0.0
2015-Aug-21 15:24N 34°10' E 135°08'0 0.0
2015-Aug-21 14:30N 34°10' E 135°08'0 0.0
2015-Aug-21 13:24N 34°10' E 135°08'0 0.0
2015-Aug-21 12:33N 34°10' E 135°08'0 0.0
2015-Aug-21 11:30N 34°10' E 135°08'0 0.0
2015-Aug-21 10:30N 34°10' E 135°08'0 0.0
2015-Aug-21 09:33N 34°10' E 135°08'0 0.0
2015-Aug-21 08:33N 34°10' E 135°08'0 0.0
2015-Aug-21 07:33N 34°10' E 135°08'0 0.0
2015-Aug-21 06:30N 34°10' E 135°08'0 0.0
2015-Aug-21 05:30N 34°10' E 135°08'0 0.0
2015-Aug-21 04:30N 34°10' E 135°08'0 0.0
2015-Aug-21 03:30N 34°10' E 135°08'0 0.0
2015-Aug-21 02:30N 34°10' E 135°08'0 0.1
2015-Aug-21 01:33N 34°10' E 135°08'0 0.0
2015-Aug-21 00:30N 34°10' E 135°08'0 0.0
2015-Aug-20 23:27N 34°10' E 135°08'0 0.0
2015-Aug-20 22:30N 34°10' E 135°08'7 7.8
2015-Aug-20 21:32N 34°13' E 135°00'1212.6
2015-Aug-20 20:33N 34°25' E 135°00'1211.5
2015-Aug-20 19:31N 34°37' E 134°59'  
Track history (hours):
 
Tides and Currents Weather Stations Pressure Air Temp Water Temp Dewpoint Dewpoint Depression Visibility Wind Speed Wind Dir Waves Ship Positions

Kyokusho Maru

Last reported at 2015-Aug-23 06:05 UTC. Time now 2015-Sep-04 10:26 UTC.
Position N 34°08' E 134°58'.
Warning: this ship's position is 12 days out of date.

Length 77 m; draft 5.5 m.

Type: Tanker. MMSI: 431501667.

Date/timePositionNaut miles runAvg speedWind from/ knotsBaromVisibWave heightAir tempDewpointWater temp
2015-Aug-23 06:05N 34°08' E 134°58'611.5
2015-Aug-23 05:33N 34°08' E 135°06'2 0.3
2015-Aug-23 00:33N 34°07' E 135°07'1 1.2
2015-Aug-22 23:32N 34°08' E 135°07'2 1.4
2015-Aug-22 22:24N 34°09' E 135°08'0 0.0
2015-Aug-22 21:18N 34°09' E 135°08'0 0.0
2015-Aug-22 20:33N 34°09' E 135°08'0 0.0
2015-Aug-22 19:33N 34°09' E 135°08'0 0.1
2015-Aug-22 18:33N 34°09' E 135°08'0 0.1
2015-Aug-22 17:30N 34°09' E 135°08'0 0.0
2015-Aug-22 16:30N 34°09' E 135°08'0 0.0
2015-Aug-22 15:24N 34°09' E 135°08'0 0.0
2015-Aug-22 14:33N 34°09' E 135°08'0 0.0
2015-Aug-22 13:33N 34°09' E 135°08'0 0.0
2015-Aug-22 12:30N 34°09' E 135°08'0 0.0
2015-Aug-22 11:30N 34°09' E 135°08'0 0.0
2015-Aug-22 10:33N 34°09' E 135°08'0 0.0
2015-Aug-22 09:27N 34°09' E 135°08'0 0.0
2015-Aug-22 08:33N 34°09' E 135°08'0 0.0
2015-Aug-22 07:33N 34°09' E 135°08'0 0.0
2015-Aug-22 06:33N 34°09' E 135°08'0 0.0
2015-Aug-22 05:30N 34°09' E 135°08'0 0.0
2015-Aug-22 04:33N 34°10' E 135°08'0 0.1
2015-Aug-22 03:33N 34°10' E 135°08'0 0.0
2015-Aug-22 02:33N 34°10' E 135°08'0 0.0
2015-Aug-22 01:33N 34°10' E 135°08'0 0.0
2015-Aug-22 00:33N 34°10' E 135°08'0 0.0
2015-Aug-21 23:33N 34°10' E 135°08'0 0.0
2015-Aug-21 22:30N 34°10' E 135°08'0 0.1
2015-Aug-21 21:33N 34°10' E 135°08'0 0.0
2015-Aug-21 20:33N 34°10' E 135°08'0 0.0
2015-Aug-21 19:33N 34°10' E 135°08'0 0.0
2015-Aug-21 18:30N 34°10' E 135°08'0 0.0
2015-Aug-21 17:24N 34°10' E 135°08'0 0.0
2015-Aug-21 16:30N 34°10' E 135°08'0 0.0
2015-Aug-21 15:24N 34°10' E 135°08'0 0.0
2015-Aug-21 14:30N 34°10' E 135°08'0 0.0
2015-Aug-21 13:24N 34°10' E 135°08'0 0.0
2015-Aug-21 12:33N 34°10' E 135°08'0 0.0
2015-Aug-21 11:30N 34°10' E 135°08'0 0.0
2015-Aug-21 10:30N 34°10' E 135°08'0 0.0
2015-Aug-21 09:33N 34°10' E 135°08'0 0.0
2015-Aug-21 08:33N 34°10' E 135°08'0 0.0
2015-Aug-21 07:33N 34°10' E 135°08'0 0.0
2015-Aug-21 06:30N 34°10' E 135°08'0 0.0
2015-Aug-21 05:30N 34°10' E 135°08'0 0.0
2015-Aug-21 04:30N 34°10' E 135°08'0 0.0
2015-Aug-21 03:30N 34°10' E 135°08'0 0.0
2015-Aug-21 02:30N 34°10' E 135°08'0 0.1
2015-Aug-21 01:33N 34°10' E 135°08'0 0.0
2015-Aug-21 00:30N 34°10' E 135°08'0 0.0
2015-Aug-20 23:27N 34°10' E 135°08'0 0.0
2015-Aug-20 22:30N 34°10' E 135°08'7 7.8
2015-Aug-20 21:32N 34°13' E 135°00'1212.6
2015-Aug-20 20:33N 34°25' E 135°00'1211.5
2015-Aug-20 19:31N 34°37' E 134°59'  

Dump ship's entire track history